Terminal Aerodrome Forecast
Issued by NWS Quad Cities IA IL

Home | Current Version | Previous Version | Text Only | Print | Product List | Glossary On
Versions: 1 2 3 4 5 6 7 8 9 10 11 12 13 14 15 16 17 18 19 20 21 22 23 24
894
FTUS43 KDVN 151134
TAFMLI
TAF
KMLI 151134Z 1512/1612 VRB03KT P6SM BKN150
     FM151600 12004KT P6SM BKN100
     FM160500 10004KT 5SM -SNPL BR OVC020
     FM161100 12004KT 3SM -FZRA OVC007=

USA.gov is the U.S. government's official web portal to all federal, state and local government web resources and services.